sensor_id;sensor_type;location;lat;lon;timestamp;P1;durP1;ratioP1;P2;durP2;ratioP2
15412;SDS011;7805;49.554;7.632;2024-03-25T00:02:50;4.97;;;3.60;;
15412;SDS011;7805;49.554;7.632;2024-03-25T00:05:16;7.10;;;3.80;;
15412;SDS011;7805;49.554;7.632;2024-03-25T00:07:47;5.53;;;3.03;;
15412;SDS011;7805;49.554;7.632;2024-03-25T00:10:14;7.67;;;4.10;;
15412;SDS011;7805;49.554;7.632;2024-03-25T00:12:40;5.00;;;3.83;;
15412;SDS011;7805;49.554;7.632;2024-03-25T00:15:05;7.70;;;3.30;;
15412;SDS011;7805;49.554;7.632;2024-03-25T00:17:32;6.93;;;3.37;;
15412;SDS011;7805;49.554;7.632;2024-03-25T00:19:58;6.73;;;3.47;;
15412;SDS011;7805;49.554;7.632;2024-03-25T00:22:24;6.43;;;3.53;;
15412;SDS011;7805;49.554;7.632;2024-03-25T00:24:52;7.17;;;3.70;;
15412;SDS011;7805;49.554;7.632;2024-03-25T00:27:18;8.70;;;4.43;;
15412;SDS011;7805;49.554;7.632;2024-03-25T00:29:44;4.37;;;3.63;;
15412;SDS011;7805;49.554;7.632;2024-03-25T00:32:09;5.30;;;3.30;;
15412;SDS011;7805;49.554;7.632;2024-03-25T00:34:35;5.77;;;3.87;;
15412;SDS011;7805;49.554;7.632;2024-03-25T00:37:01;9.77;;;4.10;;
15412;SDS011;7805;49.554;7.632;2024-03-25T00:39:28;9.00;;;4.27;;
15412;SDS011;7805;49.554;7.632;2024-03-25T00:41:57;9.33;;;4.00;;
15412;SDS011;7805;49.554;7.632;2024-03-25T00:44:23;7.37;;;3.77;;
15412;SDS011;7805;49.554;7.632;2024-03-25T00:46:48;5.27;;;3.30;;
15412;SDS011;7805;49.554;7.632;2024-03-25T00:49:14;8.87;;;4.93;;
15412;SDS011;7805;49.554;7.632;2024-03-25T00:51:40;6.17;;;4.53;;
15412;SDS011;7805;49.554;7.632;2024-03-25T00:54:06;5.27;;;4.27;;
15412;SDS011;7805;49.554;7.632;2024-03-25T00:56:32;7.47;;;4.50;;
15412;SDS011;7805;49.554;7.632;2024-03-25T00:58:58;7.83;;;4.97;;
15412;SDS011;7805;49.554;7.632;2024-03-25T01:01:27;8.00;;;4.77;;
15412;SDS011;7805;49.554;7.632;2024-03-25T01:03:56;7.93;;;4.50;;
15412;SDS011;7805;49.554;7.632;2024-03-25T01:06:22;5.77;;;3.80;;
15412;SDS011;7805;49.554;7.632;2024-03-25T01:08:48;6.70;;;3.90;;
15412;SDS011;7805;49.554;7.632;2024-03-25T01:11:14;5.03;;;3.23;;
15412;SDS011;7805;49.554;7.632;2024-03-25T01:13:40;8.10;;;3.33;;
15412;SDS011;7805;49.554;7.632;2024-03-25T01:16:06;5.20;;;3.43;;
15412;SDS011;7805;49.554;7.632;2024-03-25T01:18:32;7.23;;;3.50;;
15412;SDS011;7805;49.554;7.632;2024-03-25T01:20:58;4.40;;;2.67;;
15412;SDS011;7805;49.554;7.632;2024-03-25T01:23:24;6.43;;;3.27;;
15412;SDS011;7805;49.554;7.632;2024-03-25T01:25:50;7.63;;;3.70;;
15412;SDS011;7805;49.554;7.632;2024-03-25T01:28:15;6.33;;;4.10;;
15412;SDS011;7805;49.554;7.632;2024-03-25T01:30:41;7.33;;;3.80;;
15412;SDS011;7805;49.554;7.632;2024-03-25T01:33:07;7.03;;;3.80;;
15412;SDS011;7805;49.554;7.632;2024-03-25T01:35:33;7.83;;;3.47;;
15412;SDS011;7805;49.554;7.632;2024-03-25T01:37:59;4.37;;;3.23;;
15412;SDS011;7805;49.554;7.632;2024-03-25T01:40:24;5.73;;;3.10;;
15412;SDS011;7805;49.554;7.632;2024-03-25T01:42:56;4.90;;;3.57;;
15412;SDS011;7805;49.554;7.632;2024-03-25T01:45:23;10.73;;;4.50;;
15412;SDS011;7805;49.554;7.632;2024-03-25T01:47:49;3.47;;;3.17;;
15412;SDS011;7805;49.554;7.632;2024-03-25T01:50:16;3.87;;;2.77;;
15412;SDS011;7805;49.554;7.632;2024-03-25T01:52:42;6.73;;;3.87;;
15412;SDS011;7805;49.554;7.632;2024-03-25T01:55:07;6.20;;;3.73;;
15412;SDS011;7805;49.554;7.632;2024-03-25T01:57:37;9.93;;;3.90;;
15412;SDS011;7805;49.554;7.632;2024-03-25T02:00:03;5.20;;;3.00;;
15412;SDS011;7805;49.554;7.632;2024-03-25T02:02:30;4.53;;;3.13;;
15412;SDS011;7805;49.554;7.632;2024-03-25T02:04:58;5.00;;;3.53;;
15412;SDS011;7805;49.554;7.632;2024-03-25T02:07:25;8.17;;;3.37;;
15412;SDS011;7805;49.554;7.632;2024-03-25T02:09:51;9.23;;;3.17;;
15412;SDS011;7805;49.554;7.632;2024-03-25T02:12:17;5.90;;;3.67;;
15412;SDS011;7805;49.554;7.632;2024-03-25T02:14:43;5.63;;;3.10;;
15412;SDS011;7805;49.554;7.632;2024-03-25T02:17:09;4.90;;;2.90;;
15412;SDS011;7805;49.554;7.632;2024-03-25T02:19:35;3.20;;;2.70;;
15412;SDS011;7805;49.554;7.632;2024-03-25T02:22:02;5.17;;;3.03;;
15412;SDS011;7805;49.554;7.632;2024-03-25T02:24:28;2.57;;;2.27;;
15412;SDS011;7805;49.554;7.632;2024-03-25T02:26:56;5.67;;;2.30;;
15412;SDS011;7805;49.554;7.632;2024-03-25T02:29:21;3.37;;;2.20;;
15412;SDS011;7805;49.554;7.632;2024-03-25T02:31:47;3.77;;;2.50;;
15412;SDS011;7805;49.554;7.632;2024-03-25T02:34:13;7.33;;;2.30;;
15412;SDS011;7805;49.554;7.632;2024-03-25T02:36:38;4.40;;;3.00;;
15412;SDS011;7805;49.554;7.632;2024-03-25T02:39:04;5.73;;;2.53;;
15412;SDS011;7805;49.554;7.632;2024-03-25T02:41:30;5.73;;;2.77;;
15412;SDS011;7805;49.554;7.632;2024-03-25T02:43:56;4.43;;;2.50;;
15412;SDS011;7805;49.554;7.632;2024-03-25T02:46:22;3.80;;;2.87;;
15412;SDS011;7805;49.554;7.632;2024-03-25T02:48:48;5.50;;;3.47;;
15412;SDS011;7805;49.554;7.632;2024-03-25T02:51:13;4.27;;;3.00;;
15412;SDS011;7805;49.554;7.632;2024-03-25T02:53:39;5.63;;;3.27;;
15412;SDS011;7805;49.554;7.632;2024-03-25T02:56:04;4.20;;;2.77;;
15412;SDS011;7805;49.554;7.632;2024-03-25T02:58:30;5.17;;;3.00;;
15412;SDS011;7805;49.554;7.632;2024-03-25T03:00:55;6.90;;;2.97;;
15412;SDS011;7805;49.554;7.632;2024-03-25T03:03:21;2.80;;;2.43;;
15412;SDS011;7805;49.554;7.632;2024-03-25T03:05:47;5.40;;;2.90;;
15412;SDS011;7805;49.554;7.632;2024-03-25T03:08:13;2.77;;;2.57;;
15412;SDS011;7805;49.554;7.632;2024-03-25T03:10:38;4.03;;;2.80;;
15412;SDS011;7805;49.554;7.632;2024-03-25T03:13:04;6.47;;;2.97;;
15412;SDS011;7805;49.554;7.632;2024-03-25T03:15:29;6.00;;;2.90;;
15412;SDS011;7805;49.554;7.632;2024-03-25T03:17:55;5.67;;;3.50;;
15412;SDS011;7805;49.554;7.632;2024-03-25T03:20:20;3.10;;;2.77;;
15412;SDS011;7805;49.554;7.632;2024-03-25T03:22:46;4.57;;;2.97;;
15412;SDS011;7805;49.554;7.632;2024-03-25T03:25:12;3.87;;;2.90;;
15412;SDS011;7805;49.554;7.632;2024-03-25T03:27:37;4.67;;;2.87;;
15412;SDS011;7805;49.554;7.632;2024-03-25T03:30:03;4.17;;;2.67;;
15412;SDS011;7805;49.554;7.632;2024-03-25T03:32:29;4.27;;;2.80;;
15412;SDS011;7805;49.554;7.632;2024-03-25T03:34:55;6.17;;;2.93;;
15412;SDS011;7805;49.554;7.632;2024-03-25T03:37:20;7.03;;;3.00;;
15412;SDS011;7805;49.554;7.632;2024-03-25T03:39:46;3.27;;;2.90;;
15412;SDS011;7805;49.554;7.632;2024-03-25T03:42:11;5.27;;;3.03;;
15412;SDS011;7805;49.554;7.632;2024-03-25T03:44:37;3.03;;;2.73;;
15412;SDS011;7805;49.554;7.632;2024-03-25T03:47:02;4.77;;;3.20;;
15412;SDS011;7805;49.554;7.632;2024-03-25T03:49:28;4.67;;;2.87;;
15412;SDS011;7805;49.554;7.632;2024-03-25T03:51:53;6.70;;;3.30;;
15412;SDS011;7805;49.554;7.632;2024-03-25T03:54:19;6.37;;;3.07;;
15412;SDS011;7805;49.554;7.632;2024-03-25T03:56:45;4.50;;;2.93;;
15412;SDS011;7805;49.554;7.632;2024-03-25T03:59:10;4.13;;;3.00;;
15412;SDS011;7805;49.554;7.632;2024-03-25T04:01:36;5.87;;;3.10;;
15412;SDS011;7805;49.554;7.632;2024-03-25T04:04:01;6.40;;;2.93;;
15412;SDS011;7805;49.554;7.632;2024-03-25T04:06:27;6.47;;;3.53;;
15412;SDS011;7805;49.554;7.632;2024-03-25T04:08:52;5.70;;;3.67;;
15412;SDS011;7805;49.554;7.632;2024-03-25T04:11:18;4.33;;;3.30;;
15412;SDS011;7805;49.554;7.632;2024-03-25T04:13:43;5.37;;;2.80;;
15412;SDS011;7805;49.554;7.632;2024-03-25T04:16:11;4.97;;;2.93;;
15412;SDS011;7805;49.554;7.632;2024-03-25T04:18:36;5.17;;;3.37;;
15412;SDS011;7805;49.554;7.632;2024-03-25T04:21:02;3.43;;;3.00;;
15412;SDS011;7805;49.554;7.632;2024-03-25T04:23:27;3.87;;;2.80;;
15412;SDS011;7805;49.554;7.632;2024-03-25T04:25:53;4.53;;;2.93;;
15412;SDS011;7805;49.554;7.632;2024-03-25T04:28:20;6.73;;;3.20;;
15412;SDS011;7805;49.554;7.632;2024-03-25T04:30:51;5.77;;;3.20;;
15412;SDS011;7805;49.554;7.632;2024-03-25T04:33:17;4.83;;;2.67;;
15412;SDS011;7805;49.554;7.632;2024-03-25T04:35:44;7.27;;;2.97;;
15412;SDS011;7805;49.554;7.632;2024-03-25T04:38:10;6.73;;;3.27;;
15412;SDS011;7805;49.554;7.632;2024-03-25T04:40:35;6.00;;;3.20;;
15412;SDS011;7805;49.554;7.632;2024-03-25T04:43:01;4.73;;;3.27;;
15412;SDS011;7805;49.554;7.632;2024-03-25T04:45:27;3.93;;;2.57;;
15412;SDS011;7805;49.554;7.632;2024-03-25T04:47:53;3.30;;;3.00;;
15412;SDS011;7805;49.554;7.632;2024-03-25T04:50:18;4.17;;;2.90;;
15412;SDS011;7805;49.554;7.632;2024-03-25T04:52:44;5.93;;;3.23;;
15412;SDS011;7805;49.554;7.632;2024-03-25T04:55:09;2.97;;;2.60;;
15412;SDS011;7805;49.554;7.632;2024-03-25T04:57:35;3.73;;;2.70;;
15412;SDS011;7805;49.554;7.632;2024-03-25T05:00:00;5.50;;;3.27;;
15412;SDS011;7805;49.554;7.632;2024-03-25T05:02:27;4.37;;;2.97;;
15412;SDS011;7805;49.554;7.632;2024-03-25T05:04:53;7.90;;;3.67;;
15412;SDS011;7805;49.554;7.632;2024-03-25T05:07:19;4.93;;;3.67;;
15412;SDS011;7805;49.554;7.632;2024-03-25T05:09:44;4.50;;;3.40;;
15412;SDS011;7805;49.554;7.632;2024-03-25T05:12:10;7.43;;;3.40;;
15412;SDS011;7805;49.554;7.632;2024-03-25T05:14:36;9.27;;;3.37;;
15412;SDS011;7805;49.554;7.632;2024-03-25T05:17:01;4.83;;;3.13;;
15412;SDS011;7805;49.554;7.632;2024-03-25T05:19:29;4.80;;;3.13;;
15412;SDS011;7805;49.554;7.632;2024-03-25T05:21:54;5.13;;;3.50;;
15412;SDS011;7805;49.554;7.632;2024-03-25T05:24:20;5.40;;;3.63;;
15412;SDS011;7805;49.554;7.632;2024-03-25T05:26:45;9.20;;;3.20;;
15412;SDS011;7805;49.554;7.632;2024-03-25T05:29:11;4.77;;;3.30;;
15412;SDS011;7805;49.554;7.632;2024-03-25T05:31:37;8.17;;;3.80;;
15412;SDS011;7805;49.554;7.632;2024-03-25T05:34:04;5.70;;;3.53;;
15412;SDS011;7805;49.554;7.632;2024-03-25T05:36:33;8.43;;;3.57;;
15412;SDS011;7805;49.554;7.632;2024-03-25T05:38:59;4.87;;;4.27;;
15412;SDS011;7805;49.554;7.632;2024-03-25T05:41:25;5.93;;;3.17;;
15412;SDS011;7805;49.554;7.632;2024-03-25T05:43:50;5.70;;;3.23;;
15412;SDS011;7805;49.554;7.632;2024-03-25T05:46:16;5.70;;;3.17;;
15412;SDS011;7805;49.554;7.632;2024-03-25T05:48:41;7.97;;;3.07;;
15412;SDS011;7805;49.554;7.632;2024-03-25T05:51:08;6.10;;;3.40;;
15412;SDS011;7805;49.554;7.632;2024-03-25T05:53:33;7.03;;;3.83;;
15412;SDS011;7805;49.554;7.632;2024-03-25T05:55:59;6.67;;;4.07;;
15412;SDS011;7805;49.554;7.632;2024-03-25T05:58:25;7.87;;;4.30;;
15412;SDS011;7805;49.554;7.632;2024-03-25T06:00:51;6.63;;;3.70;;
15412;SDS011;7805;49.554;7.632;2024-03-25T06:03:20;5.87;;;4.10;;
15412;SDS011;7805;49.554;7.632;2024-03-25T06:05:46;5.60;;;4.23;;
15412;SDS011;7805;49.554;7.632;2024-03-25T06:08:12;5.17;;;4.47;;
15412;SDS011;7805;49.554;7.632;2024-03-25T06:10:46;5.93;;;3.83;;
15412;SDS011;7805;49.554;7.632;2024-03-25T06:13:11;6.80;;;3.90;;
15412;SDS011;7805;49.554;7.632;2024-03-25T06:15:37;7.57;;;4.73;;
15412;SDS011;7805;49.554;7.632;2024-03-25T06:18:02;7.20;;;4.37;;
15412;SDS011;7805;49.554;7.632;2024-03-25T06:20:28;5.23;;;3.70;;
15412;SDS011;7805;49.554;7.632;2024-03-25T06:22:53;7.83;;;4.03;;
15412;SDS011;7805;49.554;7.632;2024-03-25T06:25:19;5.77;;;3.80;;
15412;SDS011;7805;49.554;7.632;2024-03-25T06:27:45;6.77;;;4.30;;
15412;SDS011;7805;49.554;7.632;2024-03-25T06:30:11;9.53;;;4.10;;
15412;SDS011;7805;49.554;7.632;2024-03-25T06:32:56;4.57;;;3.17;;
15412;SDS011;7805;49.554;7.632;2024-03-25T06:35:42;7.37;;;3.97;;
15412;SDS011;7805;49.554;7.632;2024-03-25T06:38:08;8.13;;;4.50;;
15412;SDS011;7805;49.554;7.632;2024-03-25T06:40:34;6.87;;;4.87;;
15412;SDS011;7805;49.554;7.632;2024-03-25T06:43:00;7.27;;;4.87;;
15412;SDS011;7805;49.554;7.632;2024-03-25T06:45:25;9.13;;;6.23;;
15412;SDS011;7805;49.554;7.632;2024-03-25T06:47:51;16.17;;;10.40;;
15412;SDS011;7805;49.554;7.632;2024-03-25T06:50:16;36.83;;;22.87;;
15412;SDS011;7805;49.554;7.632;2024-03-25T06:52:42;25.40;;;16.67;;
15412;SDS011;7805;49.554;7.632;2024-03-25T06:55:08;8.03;;;6.23;;
15412;SDS011;7805;49.554;7.632;2024-03-25T06:57:33;10.20;;;5.40;;
15412;SDS011;7805;49.554;7.632;2024-03-25T06:59:59;7.33;;;4.60;;
15412;SDS011;7805;49.554;7.632;2024-03-25T07:02:24;6.03;;;4.30;;
15412;SDS011;7805;49.554;7.632;2024-03-25T07:04:50;5.17;;;3.67;;
15412;SDS011;7805;49.554;7.632;2024-03-25T07:07:15;6.97;;;4.53;;
15412;SDS011;7805;49.554;7.632;2024-03-25T07:09:41;7.10;;;4.67;;
15412;SDS011;7805;49.554;7.632;2024-03-25T07:12:07;8.27;;;4.63;;
15412;SDS011;7805;49.554;7.632;2024-03-25T07:14:33;8.17;;;4.83;;
15412;SDS011;7805;49.554;7.632;2024-03-25T07:16:59;10.37;;;6.37;;
15412;SDS011;7805;49.554;7.632;2024-03-25T07:19:24;21.80;;;17.03;;
15412;SDS011;7805;49.554;7.632;2024-03-25T07:21:50;28.33;;;22.27;;
15412;SDS011;7805;49.554;7.632;2024-03-25T07:24:16;64.37;;;40.87;;
15412;SDS011;7805;49.554;7.632;2024-03-25T07:26:41;21.67;;;13.47;;
15412;SDS011;7805;49.554;7.632;2024-03-25T07:29:07;20.77;;;14.47;;
15412;SDS011;7805;49.554;7.632;2024-03-25T07:31:32;13.30;;;10.63;;
15412;SDS011;7805;49.554;7.632;2024-03-25T07:33:58;9.17;;;7.37;;
15412;SDS011;7805;49.554;7.632;2024-03-25T07:36:23;31.70;;;26.57;;
15412;SDS011;7805;49.554;7.632;2024-03-25T07:38:49;34.83;;;26.57;;
15412;SDS011;7805;49.554;7.632;2024-03-25T07:41:15;15.40;;;12.77;;
15412;SDS011;7805;49.554;7.632;2024-03-25T07:43:40;22.60;;;16.27;;
15412;SDS011;7805;49.554;7.632;2024-03-25T07:46:06;18.77;;;14.53;;
15412;SDS011;7805;49.554;7.632;2024-03-25T07:48:31;12.20;;;8.30;;
15412;SDS011;7805;49.554;7.632;2024-03-25T07:50:57;17.87;;;11.90;;
15412;SDS011;7805;49.554;7.632;2024-03-25T07:53:22;13.57;;;9.90;;
15412;SDS011;7805;49.554;7.632;2024-03-25T07:55:48;14.47;;;10.40;;
15412;SDS011;7805;49.554;7.632;2024-03-25T07:58:15;13.83;;;9.57;;
15412;SDS011;7805;49.554;7.632;2024-03-25T08:00:41;16.23;;;9.53;;
15412;SDS011;7805;49.554;7.632;2024-03-25T08:03:06;14.83;;;10.77;;
15412;SDS011;7805;49.554;7.632;2024-03-25T08:05:33;19.10;;;13.40;;
15412;SDS011;7805;49.554;7.632;2024-03-25T08:07:58;20.60;;;11.97;;
15412;SDS011;7805;49.554;7.632;2024-03-25T08:10:24;19.23;;;13.77;;
15412;SDS011;7805;49.554;7.632;2024-03-25T08:12:49;17.37;;;11.43;;
15412;SDS011;7805;49.554;7.632;2024-03-25T08:15:15;16.33;;;12.03;;
15412;SDS011;7805;49.554;7.632;2024-03-25T08:17:41;21.80;;;12.30;;
15412;SDS011;7805;49.554;7.632;2024-03-25T08:20:09;18.40;;;13.17;;
15412;SDS011;7805;49.554;7.632;2024-03-25T08:22:35;18.70;;;13.57;;
15412;SDS011;7805;49.554;7.632;2024-03-25T08:25:00;26.33;;;15.07;;
15412;SDS011;7805;49.554;7.632;2024-03-25T08:27:26;19.97;;;15.27;;
15412;SDS011;7805;49.554;7.632;2024-03-25T08:29:52;23.83;;;15.33;;
15412;SDS011;7805;49.554;7.632;2024-03-25T08:32:19;26.50;;;18.37;;
15412;SDS011;7805;49.554;7.632;2024-03-25T08:34:44;22.67;;;16.70;;
15412;SDS011;7805;49.554;7.632;2024-03-25T08:37:10;24.07;;;15.80;;
15412;SDS011;7805;49.554;7.632;2024-03-25T08:39:36;22.07;;;14.77;;
15412;SDS011;7805;49.554;7.632;2024-03-25T08:42:01;23.57;;;16.47;;
15412;SDS011;7805;49.554;7.632;2024-03-25T08:44:27;23.10;;;15.43;;
15412;SDS011;7805;49.554;7.632;2024-03-25T08:46:53;19.70;;;14.20;;
15412;SDS011;7805;49.554;7.632;2024-03-25T08:49:19;18.77;;;14.07;;
15412;SDS011;7805;49.554;7.632;2024-03-25T08:51:45;21.27;;;14.47;;
15412;SDS011;7805;49.554;7.632;2024-03-25T08:54:10;18.33;;;13.27;;
15412;SDS011;7805;49.554;7.632;2024-03-25T08:56:36;19.17;;;13.70;;
15412;SDS011;7805;49.554;7.632;2024-03-25T08:59:01;20.73;;;13.00;;
15412;SDS011;7805;49.554;7.632;2024-03-25T09:01:28;17.63;;;12.63;;
15412;SDS011;7805;49.554;7.632;2024-03-25T09:03:55;18.07;;;12.77;;
15412;SDS011;7805;49.554;7.632;2024-03-25T09:06:21;33.30;;;22.07;;
15412;SDS011;7805;49.554;7.632;2024-03-25T09:08:47;19.50;;;12.73;;
15412;SDS011;7805;49.554;7.632;2024-03-25T09:11:31;17.67;;;13.93;;
15412;SDS011;7805;49.554;7.632;2024-03-25T09:13:57;15.50;;;11.17;;
15412;SDS011;7805;49.554;7.632;2024-03-25T09:16:23;14.13;;;11.10;;
15412;SDS011;7805;49.554;7.632;2024-03-25T09:18:48;16.00;;;10.70;;
15412;SDS011;7805;49.554;7.632;2024-03-25T09:21:14;11.97;;;10.40;;
15412;SDS011;7805;49.554;7.632;2024-03-25T09:23:39;15.00;;;12.47;;
15412;SDS011;7805;49.554;7.632;2024-03-25T09:26:05;15.53;;;11.10;;
15412;SDS011;7805;49.554;7.632;2024-03-25T09:28:30;12.77;;;10.90;;
15412;SDS011;7805;49.554;7.632;2024-03-25T09:30:56;11.80;;;10.57;;
15412;SDS011;7805;49.554;7.632;2024-03-25T09:33:21;14.70;;;12.10;;
15412;SDS011;7805;49.554;7.632;2024-03-25T09:35:47;14.67;;;11.50;;
15412;SDS011;7805;49.554;7.632;2024-03-25T09:38:13;14.80;;;10.97;;
15412;SDS011;7805;49.554;7.632;2024-03-25T09:40:41;13.40;;;10.70;;
15412;SDS011;7805;49.554;7.632;2024-03-25T09:43:12;14.17;;;12.20;;
15412;SDS011;7805;49.554;7.632;2024-03-25T09:45:42;10.77;;;9.67;;
15412;SDS011;7805;49.554;7.632;2024-03-25T09:48:13;14.67;;;9.73;;
15412;SDS011;7805;49.554;7.632;2024-03-25T09:50:41;10.63;;;8.23;;
15412;SDS011;7805;49.554;7.632;2024-03-25T09:53:08;11.03;;;8.10;;
15412;SDS011;7805;49.554;7.632;2024-03-25T09:55:34;9.70;;;7.57;;
15412;SDS011;7805;49.554;7.632;2024-03-25T09:58:00;10.07;;;7.60;;
15412;SDS011;7805;49.554;7.632;2024-03-25T10:00:27;9.70;;;6.57;;
15412;SDS011;7805;49.554;7.632;2024-03-25T10:02:54;8.27;;;7.20;;
15412;SDS011;7805;49.554;7.632;2024-03-25T10:05:19;12.83;;;6.47;;
15412;SDS011;7805;49.554;7.632;2024-03-25T10:07:45;10.00;;;7.87;;
15412;SDS011;7805;49.554;7.632;2024-03-25T10:10:11;7.90;;;6.07;;
15412;SDS011;7805;49.554;7.632;2024-03-25T10:12:36;8.47;;;5.87;;
15412;SDS011;7805;49.554;7.632;2024-03-25T10:15:03;10.00;;;5.97;;
15412;SDS011;7805;49.554;7.632;2024-03-25T10:17:31;6.97;;;5.00;;
15412;SDS011;7805;49.554;7.632;2024-03-25T10:19:57;8.90;;;5.70;;
15412;SDS011;7805;49.554;7.632;2024-03-25T10:22:23;7.17;;;5.07;;
15412;SDS011;7805;49.554;7.632;2024-03-25T10:24:48;10.50;;;7.17;;
15412;SDS011;7805;49.554;7.632;2024-03-25T10:29:47;11.23;;;7.57;;
15412;SDS011;7805;49.554;7.632;2024-03-25T10:32:13;6.60;;;4.57;;
15412;SDS011;7805;49.554;7.632;2024-03-25T10:34:40;6.07;;;4.20;;
15412;SDS011;7805;49.554;7.632;2024-03-25T10:37:08;7.67;;;5.70;;
15412;SDS011;7805;49.554;7.632;2024-03-25T10:39:38;5.27;;;3.87;;
15412;SDS011;7805;49.554;7.632;2024-03-25T10:42:14;6.93;;;4.27;;
15412;SDS011;7805;49.554;7.632;2024-03-25T10:44:43;5.70;;;3.70;;
15412;SDS011;7805;49.554;7.632;2024-03-25T10:47:09;4.23;;;3.10;;
15412;SDS011;7805;49.554;7.632;2024-03-25T10:49:48;4.67;;;3.30;;
15412;SDS011;7805;49.554;7.632;2024-03-25T10:52:21;3.70;;;2.80;;
15412;SDS011;7805;49.554;7.632;2024-03-25T10:54:47;13.70;;;7.73;;
15412;SDS011;7805;49.554;7.632;2024-03-25T10:57:13;7.80;;;4.20;;
15412;SDS011;7805;49.554;7.632;2024-03-25T10:59:39;5.97;;;3.53;;
15412;SDS011;7805;49.554;7.632;2024-03-25T11:02:07;4.63;;;2.90;;
15412;SDS011;7805;49.554;7.632;2024-03-25T11:04:33;7.40;;;3.43;;
15412;SDS011;7805;49.554;7.632;2024-03-25T11:07:11;6.40;;;3.73;;
15412;SDS011;7805;49.554;7.632;2024-03-25T11:09:37;4.50;;;2.73;;
15412;SDS011;7805;49.554;7.632;2024-03-25T11:12:03;4.03;;;2.63;;
15412;SDS011;7805;49.554;7.632;2024-03-25T11:14:29;4.57;;;3.53;;
15412;SDS011;7805;49.554;7.632;2024-03-25T11:16:57;5.03;;;3.50;;
15412;SDS011;7805;49.554;7.632;2024-03-25T11:19:30;3.97;;;2.83;;
15412;SDS011;7805;49.554;7.632;2024-03-25T11:22:07;4.63;;;2.67;;
15412;SDS011;7805;49.554;7.632;2024-03-25T11:24:34;4.93;;;3.20;;
15412;SDS011;7805;49.554;7.632;2024-03-25T11:27:05;3.07;;;2.77;;
15412;SDS011;7805;49.554;7.632;2024-03-25T11:29:32;8.77;;;4.40;;
15412;SDS011;7805;49.554;7.632;2024-03-25T11:31:58;4.77;;;3.17;;
15412;SDS011;7805;49.554;7.632;2024-03-25T11:34:28;6.87;;;3.70;;
15412;SDS011;7805;49.554;7.632;2024-03-25T11:36:53;6.13;;;3.30;;
15412;SDS011;7805;49.554;7.632;2024-03-25T11:39:21;6.90;;;3.93;;
15412;SDS011;7805;49.554;7.632;2024-03-25T11:41:59;6.60;;;3.90;;
15412;SDS011;7805;49.554;7.632;2024-03-25T11:44:27;5.60;;;3.90;;
15412;SDS011;7805;49.554;7.632;2024-03-25T11:46:54;6.87;;;3.70;;
15412;SDS011;7805;49.554;7.632;2024-03-25T11:49:20;4.47;;;3.00;;
15412;SDS011;7805;49.554;7.632;2024-03-25T11:51:46;4.10;;;2.90;;
15412;SDS011;7805;49.554;7.632;2024-03-25T11:54:12;4.20;;;2.70;;
15412;SDS011;7805;49.554;7.632;2024-03-25T11:56:38;4.27;;;3.43;;
15412;SDS011;7805;49.554;7.632;2024-03-25T11:59:04;3.23;;;2.50;;
15412;SDS011;7805;49.554;7.632;2024-03-25T12:01:30;3.30;;;2.20;;
15412;SDS011;7805;49.554;7.632;2024-03-25T12:03:56;2.97;;;2.00;;
15412;SDS011;7805;49.554;7.632;2024-03-25T12:06:21;3.30;;;2.17;;
15412;SDS011;7805;49.554;7.632;2024-03-25T12:08:47;3.70;;;2.50;;
15412;SDS011;7805;49.554;7.632;2024-03-25T12:11:32;4.20;;;2.67;;
15412;SDS011;7805;49.554;7.632;2024-03-25T12:13:58;3.00;;;2.40;;
15412;SDS011;7805;49.554;7.632;2024-03-25T12:16:25;4.03;;;2.37;;
15412;SDS011;7805;49.554;7.632;2024-03-25T12:18:51;4.10;;;3.53;;
15412;SDS011;7805;49.554;7.632;2024-03-25T12:21:17;3.37;;;2.00;;
15412;SDS011;7805;49.554;7.632;2024-03-25T12:23:44;3.93;;;1.87;;
15412;SDS011;7805;49.554;7.632;2024-03-25T12:26:09;5.90;;;3.43;;
15412;SDS011;7805;49.554;7.632;2024-03-25T12:28:35;3.93;;;2.67;;
15412;SDS011;7805;49.554;7.632;2024-03-25T12:31:02;3.93;;;2.50;;
15412;SDS011;7805;49.554;7.632;2024-03-25T12:33:39;4.57;;;2.87;;
15412;SDS011;7805;49.554;7.632;2024-03-25T12:36:14;5.60;;;2.47;;
15412;SDS011;7805;49.554;7.632;2024-03-25T12:38:39;3.30;;;2.40;;
15412;SDS011;7805;49.554;7.632;2024-03-25T12:41:06;5.73;;;3.17;;
15412;SDS011;7805;49.554;7.632;2024-03-25T12:43:33;3.40;;;2.30;;
15412;SDS011;7805;49.554;7.632;2024-03-25T12:46:00;3.10;;;2.10;;
15412;SDS011;7805;49.554;7.632;2024-03-25T12:48:26;4.50;;;2.00;;
15412;SDS011;7805;49.554;7.632;2024-03-25T12:50:51;3.60;;;2.63;;
15412;SDS011;7805;49.554;7.632;2024-03-25T12:53:18;1.70;;;1.60;;
15412;SDS011;7805;49.554;7.632;2024-03-25T12:55:45;4.93;;;2.30;;
15412;SDS011;7805;49.554;7.632;2024-03-25T12:58:11;3.97;;;1.97;;
15412;SDS011;7805;49.554;7.632;2024-03-25T13:00:37;3.05;;;1.90;;
15412;SDS011;7805;49.554;7.632;2024-03-25T13:03:03;5.53;;;2.40;;
15412;SDS011;7805;49.554;7.632;2024-03-25T13:05:31;4.70;;;1.90;;
15412;SDS011;7805;49.554;7.632;2024-03-25T13:07:57;3.50;;;2.17;;
15412;SDS011;7805;49.554;7.632;2024-03-25T13:10:23;2.90;;;2.00;;
15412;SDS011;7805;49.554;7.632;2024-03-25T13:12:48;4.20;;;1.87;;
15412;SDS011;7805;49.554;7.632;2024-03-25T13:15:14;2.60;;;1.90;;
15412;SDS011;7805;49.554;7.632;2024-03-25T13:17:40;3.28;;;1.80;;
15412;SDS011;7805;49.554;7.632;2024-03-25T13:20:05;4.07;;;2.13;;
15412;SDS011;7805;49.554;7.632;2024-03-25T13:22:32;3.85;;;2.70;;
15412;SDS011;7805;49.554;7.632;2024-03-25T13:24:57;5.38;;;2.70;;
15412;SDS011;7805;49.554;7.632;2024-03-25T13:27:24;1.38;;;1.20;;
15412;SDS011;7805;49.554;7.632;2024-03-25T13:29:50;2.35;;;1.50;;
15412;SDS011;7805;49.554;7.632;2024-03-25T13:32:17;2.58;;;1.55;;
15412;SDS011;7805;49.554;7.632;2024-03-25T13:34:46;2.90;;;1.23;;
15412;SDS011;7805;49.554;7.632;2024-03-25T13:37:12;3.55;;;1.92;;
15412;SDS011;7805;49.554;7.632;2024-03-25T13:39:37;3.00;;;1.70;;
15412;SDS011;7805;49.554;7.632;2024-03-25T13:42:03;1.60;;;1.48;;
15412;SDS011;7805;49.554;7.632;2024-03-25T13:44:30;1.92;;;1.50;;
15412;SDS011;7805;49.554;7.632;2024-03-25T13:46:55;2.85;;;2.03;;
15412;SDS011;7805;49.554;7.632;2024-03-25T13:49:21;2.17;;;1.42;;
15412;SDS011;7805;49.554;7.632;2024-03-25T13:51:48;2.08;;;1.48;;
15412;SDS011;7805;49.554;7.632;2024-03-25T13:54:20;2.65;;;1.80;;
15412;SDS011;7805;49.554;7.632;2024-03-25T13:56:46;3.17;;;1.55;;
15412;SDS011;7805;49.554;7.632;2024-03-25T13:59:12;2.45;;;1.85;;
15412;SDS011;7805;49.554;7.632;2024-03-25T14:01:37;3.38;;;1.90;;
15412;SDS011;7805;49.554;7.632;2024-03-25T14:04:03;2.88;;;1.60;;
15412;SDS011;7805;49.554;7.632;2024-03-25T14:06:29;2.42;;;1.40;;
15412;SDS011;7805;49.554;7.632;2024-03-25T14:08:54;2.70;;;1.45;;
15412;SDS011;7805;49.554;7.632;2024-03-25T14:11:20;3.08;;;1.50;;
15412;SDS011;7805;49.554;7.632;2024-03-25T14:13:46;3.55;;;2.00;;
15412;SDS011;7805;49.554;7.632;2024-03-25T14:16:12;3.38;;;2.05;;
15412;SDS011;7805;49.554;7.632;2024-03-25T14:18:37;3.55;;;2.00;;
15412;SDS011;7805;49.554;7.632;2024-03-25T14:21:03;3.83;;;1.83;;
15412;SDS011;7805;49.554;7.632;2024-03-25T14:23:28;2.35;;;1.30;;
15412;SDS011;7805;49.554;7.632;2024-03-25T14:25:54;3.75;;;2.65;;
15412;SDS011;7805;49.554;7.632;2024-03-25T14:28:20;4.85;;;2.00;;
15412;SDS011;7805;49.554;7.632;2024-03-25T14:30:45;2.28;;;1.75;;
15412;SDS011;7805;49.554;7.632;2024-03-25T14:33:11;2.72;;;1.40;;
15412;SDS011;7805;49.554;7.632;2024-03-25T14:35:38;2.72;;;1.42;;
15412;SDS011;7805;49.554;7.632;2024-03-25T14:38:04;7.18;;;4.18;;
15412;SDS011;7805;49.554;7.632;2024-03-25T14:40:29;3.13;;;2.38;;
15412;SDS011;7805;49.554;7.632;2024-03-25T14:42:55;3.28;;;1.27;;
15412;SDS011;7805;49.554;7.632;2024-03-25T14:45:20;3.58;;;1.35;;
15412;SDS011;7805;49.554;7.632;2024-03-25T14:47:46;3.78;;;1.58;;
15412;SDS011;7805;49.554;7.632;2024-03-25T14:50:12;2.45;;;1.20;;
15412;SDS011;7805;49.554;7.632;2024-03-25T14:52:37;2.60;;;1.70;;
15412;SDS011;7805;49.554;7.632;2024-03-25T14:55:03;1.45;;;1.23;;